WetterOnline ( https://www.wetteronline.de )

Wetter aktuell Nagel

Aktuelles Wetter: Wunsiedel-Schönbrunn (622m)

6-stündlich | Neueste Meldungen
Ortszeit Temperatur Wetter
Do, 18.08. 8:00 19.2° C bewölkt
Do, 18.08. 2:00 20.5° C bedeckt
Mi, 17.08. 20:00 25.8° C wolkig
Mi, 17.08. 14:00 27.7° C leicht bewölkt
Mi, 17.08. 8:00 17.0° C leicht bewölkt
Mi, 17.08. 2:00 15.4° C wolkenlos
Di, 16.08. 20:00 23.7° C leicht bewölkt
Di, 16.08. 14:00 23.1° C bedeckt
Ortszeit Temperatur Wetter
Do, 18.08. 11:30 16.7° C starker Regen
Do, 18.08. 11:20 16.7° C starker Regen
Do, 18.08. 11:10 17.2° C bedeckt
Do, 18.08. 11:00 16.8° C leichter Regen
Do, 18.08. 10:50 16.8° C leichter Regen
Do, 18.08. 10:40 16.8° C Regen
Do, 18.08. 10:30 17.2° C leichter Regen
Do, 18.08. 10:00 18.9° C Regen
Do, 18.08. 9:30 19.6° C bewölkt
Do, 18.08. 9:00 19.5° C leichter Regen
Do, 18.08. 8:30 19.4° C bewölkt
Ortszeit Relative Feuchte Sichtweite
Do, 18.08. 8:00 66% 45 km
Do, 18.08. 2:00 55% 50 km
Mi, 17.08. 20:00 38% 50 km
Mi, 17.08. 14:00 32% 40 km
Mi, 17.08. 8:00 64% 45 km
Mi, 17.08. 2:00 73% 55 km
Di, 16.08. 20:00 44% 60 km
Di, 16.08. 14:00 49% 35 km
Ortszeit Relative Feuchte Sichtweite
Do, 18.08. 11:30 83% 5.0 km
Do, 18.08. 11:20 83% -
Do, 18.08. 11:10 79% -
Do, 18.08. 11:00 80% 30 km
Do, 18.08. 10:50 80% -
Do, 18.08. 10:40 79% -
Do, 18.08. 10:30 78% 18 km
Do, 18.08. 10:00 68% 11 km
Do, 18.08. 9:30 64% 55 km
Do, 18.08. 9:00 65% 40 km
Do, 18.08. 8:30 66% 45 km
Ortszeit Niederschlagsmenge Niederschlagsart
Do, 18.08. 8:00 0.1 l/m2 in 12 Std. Regen
Do, 18.08. 2:00 0.0 l/m2 in 6 Std. -
Mi, 17.08. 20:00 0.0 l/m2 in 12 Std. -
Mi, 17.08. 14:00 0.0 l/m2 in 6 Std. -
Mi, 17.08. 8:00 0.0 l/m2 in 12 Std. -
Mi, 17.08. 2:00 0.0 l/m2 in 6 Std. -
Di, 16.08. 20:00 0.0 l/m2 in 12 Std. -
Di, 16.08. 14:00 0.0 l/m2 in 6 Std. -
Ortszeit Niederschlagsmenge Niederschlagsart
Do, 18.08. 11:30 0.8 l/m2 in 1 Std. -
Do, 18.08. 11:20 keine Meldung -
Do, 18.08. 11:10 keine Meldung -
Do, 18.08. 11:00 1.0 l/m2 in 1 Std. Regen
Do, 18.08. 10:50 keine Meldung -
Do, 18.08. 10:40 keine Meldung -
Do, 18.08. 10:30 0.8 l/m2 in 1 Std. -
Do, 18.08. 10:00 0.2 l/m2 in 1 Std. Regen
Do, 18.08. 9:30 0.1 l/m2 in 1 Std. Schneeregen
Do, 18.08. 9:00 0.1 l/m2 in 1 Std. Regen
Do, 18.08. 8:30 0.0 l/m2 in 1 Std. -
Ortszeit Stärke Spitze Richtung
km/h Bft. km/h Grad Sektor
Do, 18.08. 8:00 4 1 29 180° S
Do, 18.08. 2:00 6 1 17 320° NW
Mi, 17.08. 20:00 9 2 24 330° NW
Mi, 17.08. 14:00 9 2 22 190° S
Mi, 17.08. 8:00 2 1 9 260° W
Mi, 17.08. 2:00 0 0 14 - -
Di, 16.08. 20:00 9 2 33 290° W
Di, 16.08. 14:00 15 3 33 220° SW
Ortszeit Stärke Spitze Richtung
km/h Bft. km/h Grad Sektor
Do, 18.08. 11:30 7 2 22 330° NW
Do, 18.08. 11:20 7 2 - 330° NW
Do, 18.08. 11:10 9 2 - 270° W
Do, 18.08. 11:00 22 4 32 350° N
Do, 18.08. 10:50 22 4 - 350° N
Do, 18.08. 10:40 22 4 - 350° N
Do, 18.08. 10:30 9 2 19 30° NO
Do, 18.08. 10:00 9 2 24 30° NO
Do, 18.08. 9:30 7 2 25 80° O
Do, 18.08. 9:00 11 2 24 330° NW
Do, 18.08. 8:30 4 1 7 300° NW
Ortszeit Untergrenze Bedeckung Gattung
total tief tief mittel hoch
Do, 18.08. 8:00 2700 m 8/8 6/8 - - -
Do, 18.08. 2:00 4500 m 8/8 8/8 - - -
Mi, 17.08. 20:00 3000 m 7/8 5/8 - - -
Mi, 17.08. 14:00 8100 m 6/8 0/8 - - -
Mi, 17.08. 8:00 8400 m 7/8 0/8 - - -
Mi, 17.08. 2:00 - 0/8 0/8 - - -
Di, 16.08. 20:00 2400 m 2/8 2/8 - - -
Di, 16.08. 14:00 1380 m 8/8 8/8 - - -
Ortszeit Bedeckungsgrad in Achtel und Wolkenuntergrenze
Do, 18.08. 11:30 8(2100m)
Do, 18.08. 11:20 8(2100m)
Do, 18.08. 11:10 8
Do, 18.08. 11:00 6(2100m) 8(2400m)
Do, 18.08. 10:50 6(2100m) 8(2400m)
Do, 18.08. 10:40 8
Do, 18.08. 10:30 5(2100m) 7(2400m) 7(3000m)
Do, 18.08. 10:00 4(2100m) 8(2700m)
Do, 18.08. 9:30 7(2100m) 8(3000m)
Do, 18.08. 9:00 7(2700m)
Do, 18.08. 8:30 7(2700m)
Ortszeit Luftdruck NN (hPa) Tendenz (hPa in 3 Std.)
Do, 18.08. 8:00 1011 + 0,3
Do, 18.08. 2:00 1011 + 0,1
Mi, 17.08. 20:00 1009 0,0
Mi, 17.08. 14:00 1009 - 0,7
Mi, 17.08. 8:00 1012 + 0,3
Mi, 17.08. 2:00 1012 - 0,1
Di, 16.08. 20:00 1009 + 0,1
Di, 16.08. 14:00 1010 0,0
Ortszeit Luftdruck NN (hPa) Tendenz (hPa in 3 Std.)
Do, 18.08. 11:30 1012 + 0,3
Do, 18.08. 11:20 1012 keine Meldung
Do, 18.08. 11:10 1012 keine Meldung
Do, 18.08. 11:00 1012 + 0,2
Do, 18.08. 10:50 1012 keine Meldung
Do, 18.08. 10:40 1012 keine Meldung
Do, 18.08. 10:30 1012 + 1,3
Do, 18.08. 10:00 1012 + 1,0
Do, 18.08. 9:30 1011 + 0,8
Do, 18.08. 9:00 1011 + 0,3
Do, 18.08. 8:30 1011 + 0,5
Ortszeit Schneehöhe (cm)
Do, 18.08. 8:00 0
Do, 18.08. 2:00 0
Mi, 17.08. 20:00 0
Mi, 17.08. 14:00 0
Mi, 17.08. 8:00 0
Mi, 17.08. 2:00 0
Di, 16.08. 20:00 0
Di, 16.08. 14:00 0
Ortszeit Schneehöhe (cm)
Do, 18.08. 11:30 0
Do, 18.08. 11:20 0
Do, 18.08. 11:10 0
Do, 18.08. 11:00 0
Do, 18.08. 10:50 0
Do, 18.08. 10:40 0
Do, 18.08. 10:30 0
Do, 18.08. 10:00 0
Do, 18.08. 9:30 0
Do, 18.08. 9:00 0
Do, 18.08. 8:30 0
Link zu dieser Seite / Seite empfehlen

Das Wetter in ...